createdAt,value
2022-08-17T05:05:11.709Z,96954.06
2022-08-17T05:15:16.824Z,96958.94
2022-08-17T05:25:25.759Z,96946.47
2022-08-17T05:35:31.813Z,96942.28
2022-08-17T05:45:54.572Z,96932.84
2022-08-17T05:56:30.305Z,96931.06
2022-08-17T06:06:33.354Z,96941.47
2022-08-17T06:16:41.455Z,96945.03
2022-08-17T06:26:45.894Z,96951.00
2022-08-17T06:36:54.538Z,96948.59
2022-08-17T06:47:06.413Z,96945.78
2022-08-17T06:57:20.076Z,96954.66
2022-08-17T07:07:42.146Z,96947.69
2022-08-17T07:17:48.402Z,96956.19
2022-08-17T07:27:54.537Z,96960.44
2022-08-17T07:38:25.770Z,96950.44
2022-08-17T07:48:29.658Z,96942.66
2022-08-17T07:58:32.434Z,96938.41
2022-08-17T08:08:44.083Z,96942.06
2022-08-17T08:18:54.020Z,96928.22
2022-08-17T08:29:32.032Z,96927.09
2022-08-17T08:39:55.208Z,96938.03
2022-08-17T08:50:38.810Z,96936.50
2022-08-17T09:00:48.488Z,96927.91
2022-08-17T09:11:03.912Z,96931.75
2022-08-17T09:21:48.004Z,96947.81
2022-08-17T09:32:01.977Z,96939.06
2022-08-17T09:42:14.457Z,96935.44
2022-08-17T09:52:35.767Z,96937.47
2022-08-17T10:02:54.907Z,96935.13
2022-08-17T10:13:00.573Z,96933.22
2022-08-17T10:23:41.354Z,96932.84
2022-08-17T10:34:36.220Z,96940.25
2022-08-17T10:45:02.440Z,96922.41
2022-08-17T10:55:06.455Z,96920.59
2022-08-17T11:05:20.816Z,96923.41
2022-08-17T11:15:45.524Z,96912.91
2022-08-17T11:26:04.427Z,96912.81
2022-08-17T11:36:22.524Z,96918.97
2022-08-17T11:47:08.564Z,96911.56
2022-08-17T11:57:26.808Z,96907.50
2022-08-17T12:07:32.951Z,96901.03
2022-08-17T12:17:40.555Z,96886.38
2022-08-17T12:28:04.940Z,96884.00
2022-08-17T12:38:28.166Z,96885.16
2022-08-17T12:48:34.656Z,96883.72
2022-08-17T12:58:53.811Z,96879.19
2022-08-17T13:08:56.612Z,96876.13
2022-08-17T13:19:16.822Z,96871.28
2022-08-17T13:29:28.763Z,96877.59
2022-08-17T13:39:41.919Z,96872.78
2022-08-17T13:49:49.028Z,96882.28
2022-08-17T14:00:06.317Z,96879.34
2022-08-17T14:10:12.010Z,96869.13
2022-08-17T14:20:16.563Z,96880.41
2022-08-17T14:30:20.411Z,96886.06
2022-08-17T14:40:27.782Z,96870.19
2022-08-17T14:50:30.596Z,96881.50
2022-08-17T15:00:35.323Z,96878.00
2022-08-17T15:10:39.357Z,96879.88
2022-08-17T15:20:44.479Z,96896.00
2022-08-17T15:30:47.045Z,96903.97
2022-08-17T15:40:51.815Z,96910.75
2022-08-17T15:50:54.381Z,96904.75
2022-08-17T16:01:15.136Z,96900.59
2022-08-17T16:11:21.124Z,96872.28
2022-08-17T16:21:27.031Z,96878.53
2022-08-17T16:31:29.940Z,96893.31
2022-08-17T16:41:45.315Z,96901.72
2022-08-17T16:51:48.767Z,96888.19
2022-08-17T17:01:51.288Z,96868.19
2022-08-17T17:11:57.801Z,96869.19
2022-08-17T17:22:15.649Z,96893.19
2022-08-17T17:32:49.804Z,96903.25
2022-08-17T17:42:55.677Z,96885.69
2022-08-17T17:53:19.574Z,96898.13
2022-08-17T18:03:55.820Z,96896.66
2022-08-17T18:14:32.443Z,96905.16
2022-08-17T18:24:40.615Z,96912.13
2022-08-17T18:34:47.608Z,96932.69
2022-08-17T18:44:54.865Z,96946.16
2022-08-17T18:55:25.278Z,96947.25
2022-08-17T19:05:41.199Z,96956.41
2022-08-17T19:16:12.058Z,96953.50
2022-08-17T19:26:51.025Z,96951.31
2022-08-17T19:36:56.062Z,96942.88
2022-08-17T19:47:08.035Z,96953.50
2022-08-17T19:57:26.103Z,96938.28
2022-08-17T20:07:41.826Z,96949.28
2022-08-17T20:17:48.067Z,96950.53
2022-08-17T20:28:06.895Z,96935.38
